Terminal Aerodrome Forecast
Issued by NWS

Home | Current Version | Previous Version | Text Only | Print | Product List | Glossary On
Versions: 1 2 3 4 5 6 7 8 9 10 11 12 13 14
000
FTUS45 KRIW 251700 RRA
TAFRKS
TAF
KRKS 251742Z 2518/2618 06010KT 1/4SM +SN VV004
     FM251900 04024G34KT 1SM -SN BLSN OVC008
     FM261000 04020G28KT 2SM -SN BLSN SCT008 OVC015
     FM261200 06012G22KT P6SM VCSH OVC025
     FM261500 04010KT P6SM BKN035=

USA.gov is the U.S. government's official web portal to all federal, state and local government web resources and services.